createdAt,value
2019-05-18T00:02:22.170Z,26.27
2019-05-18T00:04:48.158Z,26.47
2019-05-18T00:07:14.135Z,26.93
2019-05-18T00:09:40.155Z,26.47
2019-05-18T00:12:06.184Z,30.83
2019-05-18T00:14:32.164Z,30.77
2019-05-18T00:16:58.174Z,30.43
2019-05-18T00:19:24.224Z,26.80
2019-05-18T00:21:50.305Z,28.40
2019-05-18T00:24:16.371Z,26.47
2019-05-18T00:26:42.406Z,27.87
2019-05-18T00:29:08.386Z,30.20
2019-05-18T00:31:34.455Z,30.20
2019-05-18T00:34:00.440Z,28.13
2019-05-18T00:36:27.332Z,30.63
2019-05-18T00:38:53.346Z,30.33
2019-05-18T00:41:19.336Z,28.00
2019-05-18T00:43:45.453Z,31.00
2019-05-18T00:46:11.477Z,26.90
2019-05-18T00:48:37.506Z,30.03
2019-05-18T00:51:03.848Z,25.43
2019-05-18T00:53:29.886Z,25.47
2019-05-18T00:55:55.933Z,25.03
2019-05-18T00:58:21.917Z,28.67
2019-05-18T01:00:47.981Z,26.23
2019-05-18T01:03:14.073Z,27.50
2019-05-18T01:05:40.120Z,27.33
2019-05-18T01:08:06.104Z,27.97
2019-05-18T01:10:32.080Z,25.60
2019-05-18T01:12:58.101Z,25.50
2019-05-18T01:15:24.089Z,26.40
2019-05-18T01:17:57.208Z,29.40
2019-05-18T01:20:18.285Z,25.47
2019-05-18T01:22:44.338Z,24.90
2019-05-18T01:25:10.505Z,26.40
2019-05-18T01:27:36.510Z,25.97
2019-05-18T01:30:08.118Z,27.17
2019-05-18T01:32:34.083Z,27.47
2019-05-18T01:35:00.110Z,26.30
2019-05-18T01:37:26.391Z,27.63
2019-05-18T01:39:52.568Z,31.50
2019-05-18T01:42:18.539Z,25.53
2019-05-18T01:44:44.580Z,29.67
2019-05-18T01:47:10.558Z,31.07
2019-05-18T01:49:36.633Z,30.23
2019-05-18T01:52:02.610Z,29.67
2019-05-18T01:54:28.761Z,29.20
2019-05-18T01:56:54.907Z,29.30
2019-05-18T01:59:20.901Z,28.77
2019-05-18T02:01:46.893Z,32.83
2019-05-18T02:04:12.948Z,31.03
2019-05-18T02:06:38.938Z,34.10
2019-05-18T02:09:06.650Z,34.60
2019-05-18T02:11:32.636Z,32.10
2019-05-18T02:13:58.738Z,31.30
2019-05-18T02:16:24.755Z,33.70
2019-05-18T02:18:50.777Z,31.77
2019-05-18T02:21:16.822Z,30.10
2019-05-18T02:23:42.957Z,27.80
2019-05-18T02:26:09.063Z,29.30
2019-05-18T02:28:35.045Z,25.40
2019-05-18T02:31:01.084Z,30.73
2019-05-18T02:33:27.157Z,25.33
2019-05-18T02:35:53.172Z,25.90
2019-05-18T02:38:19.273Z,24.70
2019-05-18T02:40:46.197Z,24.87
2019-05-18T02:43:12.886Z,24.20
2019-05-18T02:45:38.953Z,27.43
2019-05-18T02:48:05.191Z,21.60
2019-05-18T02:50:31.269Z,20.50
2019-05-18T02:52:57.317Z,19.13
2019-05-18T02:55:23.356Z,21.27
2019-05-18T02:57:49.411Z,21.27
2019-05-18T03:00:16.108Z,21.37
2019-05-18T03:02:42.186Z,20.00
2019-05-18T03:05:08.769Z,22.10
2019-05-18T03:07:34.898Z,20.23
2019-05-18T03:10:01.189Z,19.53
2019-05-18T03:12:27.237Z,25.30
2019-05-18T03:14:53.257Z,24.97
2019-05-18T03:17:19.505Z,25.20
2019-05-18T03:19:45.531Z,23.90
2019-05-18T03:22:11.497Z,26.17
2019-05-18T03:24:37.520Z,22.30
2019-05-18T03:27:03.513Z,22.30
2019-05-18T03:29:29.526Z,22.83
2019-05-18T03:31:55.605Z,20.70
2019-05-18T03:34:21.675Z,18.73
2019-05-18T03:36:47.781Z,19.13
2019-05-18T03:39:13.805Z,24.97
2019-05-18T03:41:39.801Z,22.17
2019-05-18T03:44:05.854Z,19.50
2019-05-18T03:46:31.839Z,21.10
2019-05-18T03:48:57.818Z,24.30
2019-05-18T03:51:23.823Z,26.33
2019-05-18T03:53:49.838Z,24.83
2019-05-18T03:56:15.809Z,21.20
2019-05-18T03:58:41.829Z,21.13
2019-05-18T04:01:07.806Z,24.10
2019-05-18T04:03:33.828Z,22.00
2019-05-18T04:05:59.831Z,20.97
2019-05-18T04:08:25.798Z,21.80
2019-05-18T04:10:51.838Z,21.13
2019-05-18T04:13:18.172Z,20.67
2019-05-18T04:15:44.189Z,20.30
2019-05-18T04:18:10.246Z,19.93
2019-05-18T04:20:36.654Z,21.20
2019-05-18T04:23:02.972Z,20.57
2019-05-18T04:25:29.009Z,18.90
2019-05-18T04:27:55.001Z,21.33
2019-05-18T04:30:21.027Z,18.67
2019-05-18T04:32:47.341Z,20.07
2019-05-18T04:35:13.471Z,20.03
2019-05-18T04:37:39.578Z,20.63
2019-05-18T04:40:06.216Z,19.60
2019-05-18T04:42:32.252Z,22.63
2019-05-18T04:44:58.245Z,22.47
2019-05-18T04:47:24.243Z,24.30
2019-05-18T04:50:04.451Z,23.90
2019-05-18T04:52:18.161Z,25.07
2019-05-18T04:54:44.172Z,26.70
2019-05-18T04:57:10.221Z,33.17
2019-05-18T04:59:36.197Z,27.13
2019-05-18T05:02:02.253Z,27.90
2019-05-18T05:04:28.369Z,29.00
2019-05-18T05:06:54.437Z,26.57
2019-05-18T05:09:20.456Z,28.87
2019-05-18T05:11:46.436Z,29.53
2019-05-18T05:14:12.500Z,26.63
2019-05-18T05:16:38.602Z,27.50
2019-05-18T05:19:04.780Z,26.40
2019-05-18T05:21:31.058Z,25.63
2019-05-18T05:23:57.008Z,23.60
2019-05-18T05:26:23.055Z,25.97
2019-05-18T05:28:49.048Z,25.77
2019-05-18T05:31:15.067Z,24.30
2019-05-18T05:33:41.095Z,25.70
2019-05-18T05:36:07.165Z,24.47
2019-05-18T05:38:33.267Z,24.27
2019-05-18T05:40:59.317Z,22.97
2019-05-18T05:43:25.453Z,23.90
2019-05-18T05:45:51.601Z,24.10
2019-05-18T05:48:17.575Z,24.33
2019-05-18T05:50:43.572Z,24.93
2019-05-18T05:53:09.592Z,25.47
2019-05-18T05:55:35.618Z,27.73
2019-05-18T05:58:01.641Z,26.90
2019-05-18T06:00:27.700Z,27.27
2019-05-18T06:02:53.790Z,26.80
2019-05-18T06:05:19.822Z,30.60
2019-05-18T06:07:45.882Z,34.13
2019-05-18T06:10:12.586Z,30.33
2019-05-18T06:12:38.604Z,32.50
2019-05-18T06:15:05.532Z,31.63
2019-05-18T06:17:31.556Z,31.43
2019-05-18T06:19:57.564Z,29.63
2019-05-18T06:22:23.622Z,29.77
2019-05-18T06:24:49.705Z,33.30
2019-05-18T06:27:15.680Z,32.23
2019-05-18T06:29:41.736Z,32.20
2019-05-18T06:32:07.739Z,33.40
2019-05-18T06:34:33.783Z,32.00
2019-05-18T06:36:59.794Z,34.40
2019-05-18T06:39:25.938Z,30.97
2019-05-18T06:41:52.270Z,33.57
2019-05-18T06:44:18.367Z,31.80
2019-05-18T06:46:44.504Z,30.83
2019-05-18T06:49:10.546Z,30.77
2019-05-18T06:51:36.572Z,29.90
2019-05-18T06:54:02.685Z,31.20
2019-05-18T06:56:30.930Z,32.07
2019-05-18T06:58:58.662Z,30.10
2019-05-18T07:01:24.658Z,30.67
2019-05-18T07:03:50.638Z,31.87
2019-05-18T07:06:16.707Z,29.90
2019-05-18T07:08:42.730Z,30.50
2019-05-18T07:11:08.734Z,29.17
2019-05-18T07:13:34.838Z,31.37
2019-05-18T07:16:00.824Z,31.47
2019-05-18T07:18:26.935Z,31.57
2019-05-18T07:20:52.971Z,31.03
2019-05-18T07:23:18.964Z,30.87
2019-05-18T07:25:45.024Z,31.77
2019-05-18T07:28:11.162Z,32.67
2019-05-18T07:30:37.230Z,32.07
2019-05-18T07:33:03.251Z,31.10
2019-05-18T07:35:29.279Z,33.53
2019-05-18T07:37:55.341Z,33.87
2019-05-18T07:40:21.373Z,33.73
2019-05-18T07:42:47.387Z,36.00
2019-05-18T07:45:13.684Z,34.47
2019-05-18T07:47:39.715Z,33.20
2019-05-18T07:50:06.355Z,34.53
2019-05-18T07:52:32.346Z,36.33
2019-05-18T07:54:58.341Z,35.33
2019-05-18T07:57:24.313Z,33.60
2019-05-18T07:59:50.315Z,39.93
2019-05-18T08:02:16.400Z,38.57
2019-05-18T08:04:42.469Z,37.83
2019-05-18T08:07:08.682Z,38.53
2019-05-18T08:09:34.925Z,38.00
2019-05-18T08:12:01.050Z,42.50
2019-05-18T08:14:27.280Z,39.30
2019-05-18T08:16:53.451Z,43.40
2019-05-18T08:19:19.620Z,39.27
2019-05-18T08:21:53.285Z,38.47
2019-05-18T08:24:13.863Z,43.03
2019-05-18T08:26:40.108Z,41.47
2019-05-18T08:29:06.095Z,43.07
2019-05-18T08:31:32.110Z,41.73
2019-05-18T08:33:58.275Z,42.50
2019-05-18T08:36:24.265Z,44.93
2019-05-18T08:38:50.272Z,40.00
2019-05-18T08:41:16.276Z,41.30
2019-05-18T08:43:42.297Z,40.90
2019-05-18T08:46:08.338Z,43.30
2019-05-18T08:48:34.320Z,42.80
2019-05-18T08:51:00.331Z,43.10
2019-05-18T08:53:26.609Z,42.67
2019-05-18T08:55:52.573Z,44.43
2019-05-18T08:58:18.621Z,44.47
2019-05-18T09:00:44.711Z,45.30
2019-05-18T09:03:10.744Z,46.83
2019-05-18T09:05:36.755Z,44.07
2019-05-18T09:08:02.734Z,45.87
2019-05-18T09:10:28.778Z,45.70
2019-05-18T09:12:54.836Z,42.90
2019-05-18T09:15:20.896Z,35.57
2019-05-18T09:17:47.008Z,38.97
2019-05-18T09:20:13.532Z,39.43
2019-05-18T09:22:39.608Z,40.77
2019-05-18T09:25:06.035Z,42.87
2019-05-18T09:27:32.061Z,42.50
2019-05-18T09:29:58.103Z,40.50
2019-05-18T09:32:24.110Z,40.60
2019-05-18T09:34:50.317Z,40.23
2019-05-18T09:37:16.572Z,34.63
2019-05-18T09:39:42.625Z,34.87
2019-05-18T09:42:08.727Z,34.53
2019-05-18T09:44:34.757Z,35.53
2019-05-18T09:47:00.764Z,36.20
2019-05-18T09:49:26.788Z,35.43
2019-05-18T09:51:52.820Z,36.07
2019-05-18T09:54:19.048Z,35.13
2019-05-18T09:56:45.036Z,34.60
2019-05-18T09:59:11.088Z,31.47
2019-05-18T10:01:37.168Z,31.90
2019-05-18T10:04:03.240Z,33.30
2019-05-18T10:06:31.459Z,32.57
2019-05-18T10:08:57.166Z,31.37
2019-05-18T10:11:23.213Z,31.27
2019-05-18T10:13:49.343Z,27.70
2019-05-18T10:16:15.312Z,25.80
2019-05-18T10:18:41.343Z,26.70
2019-05-18T10:21:07.448Z,27.57
2019-05-18T10:23:33.487Z,27.00
2019-05-18T10:25:59.451Z,28.90
2019-05-18T10:28:25.640Z,28.80
2019-05-18T10:30:51.668Z,28.77
2019-05-18T10:33:17.677Z,27.03
2019-05-18T10:35:43.768Z,28.37
2019-05-18T10:38:09.788Z,26.60
2019-05-18T10:40:35.758Z,24.77
2019-05-18T10:43:01.757Z,24.07
2019-05-18T10:45:27.802Z,23.97
2019-05-18T10:47:53.792Z,24.17
2019-05-18T10:50:19.846Z,24.13
2019-05-18T10:52:45.873Z,22.13
2019-05-18T10:55:12.032Z,22.90
2019-05-18T10:57:38.110Z,22.50
2019-05-18T11:00:09.612Z,22.10
2019-05-18T11:02:35.712Z,21.97
2019-05-18T11:05:02.649Z,19.93
2019-05-18T11:07:29.126Z,18.20
2019-05-18T11:09:55.196Z,18.17
2019-05-18T11:12:21.185Z,19.57
2019-05-18T11:14:47.182Z,21.03
2019-05-18T11:17:13.480Z,21.03
2019-05-18T11:19:39.457Z,18.30
2019-05-18T11:22:05.485Z,17.10
2019-05-18T11:24:31.500Z,20.00
2019-05-18T11:26:57.529Z,18.70
2019-05-18T11:29:24.379Z,18.60
2019-05-18T11:31:50.811Z,18.00
2019-05-18T11:34:16.940Z,17.83
2019-05-18T11:36:43.031Z,17.20
2019-05-18T11:39:09.073Z,18.90
2019-05-18T11:41:35.208Z,18.93
2019-05-18T11:44:02.075Z,17.63
2019-05-18T11:46:28.061Z,18.20
2019-05-18T11:48:54.067Z,16.90
2019-05-18T11:51:20.134Z,17.43
2019-05-18T11:53:57.488Z,18.63
2019-05-18T11:56:13.997Z,17.73
2019-05-18T11:58:40.000Z,19.47
2019-05-18T12:01:06.004Z,17.70
2019-05-18T12:03:31.985Z,15.80
2019-05-18T12:05:58.008Z,17.00
2019-05-18T12:08:24.029Z,15.70
2019-05-18T12:10:50.073Z,17.30
2019-05-18T12:13:16.072Z,16.87
2019-05-18T12:15:42.211Z,16.27
2019-05-18T12:18:08.506Z,17.87
2019-05-18T12:20:34.590Z,17.03
2019-05-18T12:23:00.557Z,15.97
2019-05-18T12:25:26.640Z,17.20
2019-05-18T12:27:52.777Z,16.70
2019-05-18T12:30:19.256Z,18.33
2019-05-18T12:32:45.290Z,17.50
2019-05-18T12:35:11.808Z,17.53
2019-05-18T12:37:37.973Z,18.03
2019-05-18T12:40:06.145Z,16.67
2019-05-18T12:42:32.266Z,17.97
2019-05-18T12:44:58.281Z,19.23
2019-05-18T12:47:24.289Z,18.10
2019-05-18T12:49:50.280Z,17.97
2019-05-18T12:52:16.356Z,19.00
2019-05-18T12:54:46.622Z,18.43
2019-05-18T12:57:10.255Z,19.30
2019-05-18T12:59:36.282Z,19.67
2019-05-18T13:02:02.565Z,19.53
2019-05-18T13:04:28.657Z,20.20
2019-05-18T13:06:54.688Z,21.80
2019-05-18T13:09:23.631Z,18.40
2019-05-18T13:11:48.669Z,17.67
2019-05-18T13:14:14.652Z,18.90
2019-05-18T13:16:40.706Z,20.23
2019-05-18T13:19:06.711Z,20.23
2019-05-18T13:21:33.200Z,18.43
2019-05-18T13:23:59.186Z,18.30
2019-05-18T13:26:25.222Z,18.30
2019-05-18T13:28:51.237Z,19.03
2019-05-18T13:31:17.236Z,18.67
2019-05-18T13:33:43.264Z,18.40
2019-05-18T13:36:09.290Z,18.83
2019-05-18T13:38:35.328Z,19.47
2019-05-18T13:41:01.371Z,19.83
2019-05-18T13:43:27.474Z,18.80
2019-05-18T13:45:53.443Z,17.50
2019-05-18T13:48:19.430Z,18.13
2019-05-18T13:50:45.441Z,17.77
2019-05-18T13:53:11.424Z,17.97
2019-05-18T13:55:37.491Z,15.80
2019-05-18T13:58:03.495Z,17.00
2019-05-18T14:00:29.523Z,16.67
2019-05-18T14:02:55.520Z,16.60
2019-05-18T14:05:21.566Z,17.43
2019-05-18T14:07:47.656Z,17.60
2019-05-18T14:10:13.947Z,15.80
2019-05-18T14:12:40.045Z,16.17
2019-05-18T14:15:08.127Z,16.80
2019-05-18T14:17:34.144Z,16.77
2019-05-18T14:20:00.481Z,15.50
2019-05-18T14:22:26.464Z,16.87
2019-05-18T14:24:52.463Z,16.93
2019-05-18T14:27:18.463Z,16.00
2019-05-18T14:29:44.513Z,16.73
2019-05-18T14:32:11.013Z,15.87
2019-05-18T14:34:37.179Z,17.17
2019-05-18T14:37:03.388Z,16.30
2019-05-18T14:39:29.645Z,17.00
2019-05-18T14:41:55.670Z,16.67
2019-05-18T14:44:21.693Z,17.00
2019-05-18T14:46:47.680Z,15.97
2019-05-18T14:49:13.768Z,15.33
2019-05-18T14:51:39.943Z,17.40
2019-05-18T14:54:05.997Z,17.40
2019-05-18T14:56:32.004Z,15.00
2019-05-18T14:58:57.993Z,17.17
2019-05-18T15:01:24.010Z,15.40
2019-05-18T15:03:49.984Z,15.77
2019-05-18T15:06:16.098Z,14.07
2019-05-18T15:08:42.211Z,18.00
2019-05-18T15:11:08.210Z,14.67
2019-05-18T15:13:34.328Z,13.97
2019-05-18T15:16:00.402Z,13.50
2019-05-18T15:18:26.473Z,14.23
2019-05-18T15:20:52.557Z,13.40
2019-05-18T15:23:18.622Z,15.23
2019-05-18T15:25:50.931Z,13.87
2019-05-18T15:28:12.542Z,14.77
2019-05-18T15:30:38.924Z,14.50
2019-05-18T15:33:05.005Z,13.30
2019-05-18T15:35:31.008Z,13.63
2019-05-18T15:37:57.054Z,14.00
2019-05-18T15:40:23.146Z,14.20
2019-05-18T15:42:49.185Z,14.13
2019-05-18T15:45:17.359Z,13.73
2019-05-18T15:47:43.388Z,12.90
2019-05-18T15:50:09.616Z,14.13
2019-05-18T15:52:35.662Z,13.20
2019-05-18T15:55:02.036Z,13.77
2019-05-18T15:57:28.023Z,12.77
2019-05-18T15:59:54.127Z,13.33
2019-05-18T16:02:20.140Z,14.20
2019-05-18T16:04:46.150Z,13.17
2019-05-18T16:07:12.207Z,12.63
2019-05-18T16:09:38.189Z,13.03
2019-05-18T16:12:04.387Z,11.93
2019-05-18T16:14:30.377Z,12.37
2019-05-18T16:16:56.382Z,11.97
2019-05-18T16:19:22.593Z,12.33
2019-05-18T16:21:48.565Z,12.13
2019-05-18T16:24:14.596Z,12.03
2019-05-18T16:26:40.579Z,12.00
2019-05-18T16:29:06.624Z,12.27
2019-05-18T16:31:32.630Z,11.67
2019-05-18T16:33:58.616Z,11.97
2019-05-18T16:36:24.663Z,12.17
2019-05-18T16:38:50.770Z,14.43
2019-05-18T16:41:16.939Z,11.80
2019-05-18T16:43:43.068Z,13.10
2019-05-18T16:46:09.080Z,13.40
2019-05-18T16:48:35.085Z,13.00
2019-05-18T16:51:01.238Z,13.60
2019-05-18T16:53:27.403Z,14.60
2019-05-18T16:55:53.519Z,13.63
2019-05-18T16:58:19.582Z,14.50
2019-05-18T17:00:45.591Z,16.27
2019-05-18T17:03:11.613Z,20.57
2019-05-18T17:05:37.688Z,17.33
2019-05-18T17:08:03.809Z,22.97
2019-05-18T17:10:30.109Z,25.27
2019-05-18T17:12:56.226Z,18.47
2019-05-18T17:15:22.947Z,17.37
2019-05-18T17:17:48.929Z,19.77
2019-05-18T17:20:15.641Z,19.77
2019-05-18T17:22:41.710Z,20.37
2019-05-18T17:25:08.329Z,22.10
2019-05-18T17:27:34.315Z,24.50
2019-05-18T17:30:00.524Z,24.67
2019-05-18T17:32:26.669Z,25.63
2019-05-18T17:34:52.644Z,24.90
2019-05-18T17:37:18.672Z,24.60
2019-05-18T17:39:44.692Z,25.37
2019-05-18T17:42:10.700Z,26.87
2019-05-18T17:44:37.163Z,27.73
2019-05-18T17:47:03.355Z,26.07
2019-05-18T17:49:29.526Z,25.43
2019-05-18T17:51:55.564Z,24.20
2019-05-18T17:54:21.562Z,23.30
2019-05-18T17:56:47.612Z,27.43
2019-05-18T17:59:13.653Z,26.73
2019-05-18T18:01:39.717Z,24.63
2019-05-18T18:04:05.754Z,26.10
2019-05-18T18:06:31.748Z,24.97
2019-05-18T18:08:57.752Z,25.70
2019-05-18T18:11:23.836Z,26.97
2019-05-18T18:13:49.871Z,28.47
2019-05-18T18:16:15.974Z,27.30
2019-05-18T18:18:42.065Z,24.97
2019-05-18T18:21:08.147Z,24.27
2019-05-18T18:23:34.165Z,26.13
2019-05-18T18:26:00.204Z,27.10
2019-05-18T18:28:26.242Z,26.30
2019-05-18T18:30:52.251Z,26.40
2019-05-18T18:33:18.302Z,26.57
2019-05-18T18:35:44.322Z,24.97
2019-05-18T18:38:10.312Z,25.83
2019-05-18T18:40:36.360Z,25.87
2019-05-18T18:43:02.419Z,24.83
2019-05-18T18:45:28.409Z,26.33
2019-05-18T18:47:54.436Z,24.37
2019-05-18T18:50:20.488Z,24.73
2019-05-18T18:52:46.533Z,25.80
2019-05-18T18:55:13.145Z,25.87
2019-05-18T18:57:41.877Z,26.93
2019-05-18T19:00:07.902Z,25.40
2019-05-18T19:02:33.990Z,24.27
2019-05-18T19:05:00.110Z,23.50
2019-05-18T19:07:26.208Z,22.97
2019-05-18T19:09:52.209Z,24.13
2019-05-18T19:12:18.172Z,22.47
2019-05-18T19:14:44.206Z,22.83
2019-05-18T19:17:10.185Z,22.27
2019-05-18T19:19:36.167Z,22.87
2019-05-18T19:22:02.197Z,21.93
2019-05-18T19:24:28.209Z,20.80
2019-05-18T19:26:54.362Z,19.73
2019-05-18T19:29:20.441Z,21.73
2019-05-18T19:31:46.417Z,21.30
2019-05-18T19:34:12.424Z,22.27
2019-05-18T19:36:38.424Z,19.70
2019-05-18T19:39:04.769Z,22.10
2019-05-18T19:41:30.752Z,21.27
2019-05-18T19:43:56.890Z,21.67
2019-05-18T19:46:22.928Z,19.23
2019-05-18T19:48:48.949Z,20.33
2019-05-18T19:51:16.166Z,18.20
2019-05-18T19:53:42.349Z,19.50
2019-05-18T19:56:08.720Z,19.73
2019-05-18T19:58:34.701Z,19.17
2019-05-18T20:01:00.684Z,19.17
2019-05-18T20:03:26.691Z,17.80
2019-05-18T20:05:52.730Z,19.47
2019-05-18T20:08:18.754Z,17.97
2019-05-18T20:10:45.076Z,18.30
2019-05-18T20:13:11.153Z,17.97
2019-05-18T20:15:37.179Z,17.93
2019-05-18T20:18:03.185Z,18.90
2019-05-18T20:20:29.197Z,18.70
2019-05-18T20:22:55.172Z,17.57
2019-05-18T20:25:21.174Z,20.87
2019-05-18T20:27:47.177Z,17.50
2019-05-18T20:30:13.849Z,18.53
2019-05-18T20:32:39.900Z,18.03
2019-05-18T20:35:06.119Z,29.50
2019-05-18T20:37:32.118Z,34.53
2019-05-18T20:39:58.101Z,58.50
2019-05-18T20:42:24.142Z,29.63
2019-05-18T20:44:50.263Z,61.37
2019-05-18T20:47:16.252Z,21.50
2019-05-18T20:49:42.297Z,26.67
2019-05-18T20:52:08.364Z,19.83
2019-05-18T20:54:34.466Z,18.03
2019-05-18T20:57:00.633Z,19.33
2019-05-18T20:59:26.617Z,17.57
2019-05-18T21:01:52.644Z,18.03
2019-05-18T21:04:18.622Z,16.20
2019-05-18T21:06:45.670Z,17.43
2019-05-18T21:09:11.926Z,16.70
2019-05-18T21:11:38.060Z,16.43
2019-05-18T21:14:04.045Z,19.20
2019-05-18T21:16:33.411Z,15.90
2019-05-18T21:18:59.436Z,18.90
2019-05-18T21:21:26.639Z,17.40
2019-05-18T21:23:52.938Z,16.33
2019-05-18T21:26:18.904Z,18.27
2019-05-18T21:28:55.568Z,18.07
2019-05-18T21:31:12.795Z,16.87
2019-05-18T21:33:38.769Z,16.13
2019-05-18T21:36:04.934Z,18.10
2019-05-18T21:38:31.012Z,17.80
2019-05-18T21:40:57.043Z,17.80
2019-05-18T21:43:23.094Z,17.37
2019-05-18T21:45:49.104Z,16.53
2019-05-18T21:48:15.201Z,16.93
2019-05-18T21:50:41.250Z,16.53
2019-05-18T21:53:07.257Z,17.40
2019-05-18T21:55:33.830Z,18.27
2019-05-18T21:57:59.864Z,17.13
2019-05-18T22:00:26.136Z,17.80
2019-05-18T22:02:52.246Z,17.70
2019-05-18T22:05:18.211Z,17.60
2019-05-18T22:07:44.994Z,18.03
2019-05-18T22:10:24.865Z,18.33
2019-05-18T22:12:39.261Z,18.37
2019-05-18T22:15:06.215Z,17.57
2019-05-18T22:17:34.101Z,18.70
2019-05-18T22:20:00.082Z,17.10
2019-05-18T22:22:26.099Z,16.37
2019-05-18T22:24:52.114Z,23.07
2019-05-18T22:27:18.211Z,17.77
2019-05-18T22:29:44.225Z,18.80
2019-05-18T22:32:10.193Z,20.13
2019-05-18T22:34:36.595Z,18.70
2019-05-18T22:37:02.564Z,18.73
2019-05-18T22:39:28.556Z,18.90
2019-05-18T22:41:54.634Z,21.27
2019-05-18T22:44:20.690Z,19.10
2019-05-18T22:46:46.653Z,17.73
2019-05-18T22:49:12.700Z,18.30
2019-05-18T22:51:38.675Z,19.53
2019-05-18T22:54:05.070Z,18.43
2019-05-18T22:56:31.147Z,20.40
2019-05-18T22:58:57.195Z,19.47
2019-05-18T23:01:23.213Z,19.03
2019-05-18T23:03:51.667Z,17.80
2019-05-18T23:06:17.520Z,19.17
2019-05-18T23:08:43.505Z,21.30
2019-05-18T23:11:09.540Z,19.93
2019-05-18T23:13:35.591Z,154.60
2019-05-18T23:16:01.649Z,357.40
2019-05-18T23:18:27.624Z,143.03
2019-05-18T23:20:53.642Z,197.57
2019-05-18T23:23:19.662Z,48.97
2019-05-18T23:25:45.644Z,43.33
2019-05-18T23:28:11.784Z,44.40
2019-05-18T23:30:37.837Z,27.50
2019-05-18T23:33:03.859Z,26.53
2019-05-18T23:35:29.840Z,30.80
2019-05-18T23:37:56.068Z,28.90
2019-05-18T23:40:22.080Z,30.40
2019-05-18T23:42:48.124Z,27.43
2019-05-18T23:45:14.329Z,32.33
2019-05-18T23:47:40.377Z,29.67
2019-05-18T23:50:06.652Z,37.10
2019-05-18T23:52:32.693Z,25.10
2019-05-18T23:54:58.680Z,32.03
2019-05-18T23:57:24.761Z,33.40
2019-05-18T23:59:50.844Z,23.63
